Time;durP1;ratioP1;P1;durP2;ratioP2;P2;SDS_P1;SDS_P2;PMS_P1;PMS_P2;Temp;Humidity;BMP_temperature;BMP_pressure;BME280_temperature;BME280_humidity;BME280_pressure;Samples;Min_cycle;Max_cycle;Signal;HPM_P1;HPM_P2
2022/02/18 00:00:47;;;;;;;19.57;4.83;;;8.70;99.90;;;;;;5031122;28;20037;-71
2022/02/18 00:03:14;;;;;;;14.73;3.57;;;8.80;99.90;;;;;;5031034;28;20108;-71
2022/02/18 00:05:42;;;;;;;16.43;4.07;;;8.70;99.90;;;;;;5031008;28;20060;-71
2022/02/18 00:08:08;;;;;;;21.50;4.60;;;8.70;99.90;;;;;;5013438;28;20033;-71
2022/02/18 00:10:34;;;;;;;18.87;4.40;;;8.70;99.90;;;;;;5031267;28;20449;-71
2022/02/18 00:13:01;;;;;;;21.13;3.97;;;8.70;99.90;;;;;;5013520;28;20033;-71
2022/02/18 00:15:27;;;;;;;17.07;4.30;;;8.70;99.90;;;;;;5031209;28;20087;-71
2022/02/18 00:17:53;;;;;;;23.53;4.60;;;8.70;99.90;;;;;;5031082;28;20541;-71
2022/02/18 00:20:20;;;;;;;19.30;4.60;;;8.70;99.90;;;;;;5031035;28;20025;-71
2022/02/18 00:22:46;;;;;;;17.10;3.77;;;8.70;99.90;;;;;;5013219;28;20537;-70
2022/02/18 00:25:13;;;;;;;16.70;4.07;;;8.70;99.90;;;;;;5030678;28;20025;-71
2022/02/18 00:27:44;;;;;;;22.60;4.63;;;8.70;99.90;;;;;;5030914;28;20032;-71
2022/02/18 00:30:11;;;;;;;23.83;4.70;;;8.70;99.90;;;;;;5030889;28;20043;-71
2022/02/18 00:32:37;;;;;;;24.27;5.23;;;8.70;99.90;;;;;;5031087;28;20432;-70
2022/02/18 00:35:04;;;;;;;18.73;4.73;;;8.70;99.90;;;;;;5013159;28;20064;-70
2022/02/18 00:37:31;;;;;;;21.47;4.87;;;8.70;99.90;;;;;;5030921;28;20040;-70
2022/02/18 00:40:00;;;;;;;28.17;4.90;;;8.70;99.90;;;;;;5012960;28;20034;-71
2022/02/18 00:42:26;;;;;;;22.17;4.53;;;8.80;99.90;;;;;;4999063;28;20025;-70
2022/02/18 00:44:52;;;;;;;23.67;4.70;;;8.70;99.90;;;;;;5034714;28;20123;-71
2022/02/18 00:47:19;;;;;;;23.23;4.90;;;8.70;99.90;;;;;;5034906;28;20394;-70
2022/02/18 00:49:47;;;;;;;14.97;4.13;;;8.80;99.90;;;;;;5034835;28;20037;-70
2022/02/18 00:52:15;;;;;;;24.67;5.20;;;8.80;99.90;;;;;;5016955;28;20036;-71
2022/02/18 00:54:41;;;;;;;15.37;3.63;;;8.70;99.90;;;;;;5034375;28;20528;-70
2022/02/18 00:57:07;;;;;;;20.23;4.00;;;8.70;99.90;;;;;;5034534;28;20389;-70
2022/02/18 00:59:33;;;;;;;23.10;4.70;;;8.80;99.90;;;;;;5016631;28;20033;-71
2022/02/18 01:01:59;;;;;;;26.60;3.87;;;8.80;99.90;;;;;;5034520;28;20017;-71
2022/02/18 01:04:25;;;;;;;18.50;3.57;;;8.70;99.90;;;;;;5016518;28;20029;-71
2022/02/18 01:06:52;;;;;;;18.10;3.40;;;8.70;99.90;;;;;;5016708;28;20053;-70
2022/02/18 01:09:18;;;;;;;21.63;3.37;;;8.70;99.90;;;;;;5034143;28;20037;-70
2022/02/18 01:11:44;;;;;;;20.17;3.57;;;8.80;99.90;;;;;;5034315;28;20375;-71
2022/02/18 01:14:10;;;;;;;19.10;3.30;;;8.70;99.90;;;;;;5016591;28;20033;-70
2022/02/18 01:16:36;;;;;;;24.50;4.30;;;8.70;99.90;;;;;;5016702;28;20030;-70
2022/02/18 01:19:02;;;;;;;22.40;4.13;;;8.70;99.90;;;;;;5016280;28;20144;-71
2022/02/18 01:21:28;;;;;;;19.17;3.07;;;8.80;99.90;;;;;;5033997;28;20382;-70
2022/02/18 01:23:55;;;;;;;21.50;4.13;;;8.70;99.90;;;;;;5016074;28;20034;-71
2022/02/18 01:26:21;;;;;;;22.07;3.60;;;8.70;99.90;;;;;;5016294;28;20104;-71
2022/02/18 01:28:47;;;;;;;24.37;4.40;;;8.70;99.90;;;;;;5016108;28;20406;-71
2022/02/18 01:31:13;;;;;;;26.17;4.93;;;8.80;99.90;;;;;;5016091;28;20041;-71
2022/02/18 01:33:40;;;;;;;23.10;4.67;;;8.80;99.90;;;;;;5015868;28;20037;-71
2022/02/18 01:36:06;;;;;;;22.93;4.30;;;8.80;99.90;;;;;;5016018;28;20044;-71
2022/02/18 01:38:32;;;;;;;21.27;4.50;;;8.80;99.90;;;;;;5033665;28;20029;-70
2022/02/18 01:41:01;;;;;;;22.07;4.63;;;8.80;99.90;;;;;;5033768;28;20221;-70
2022/02/18 01:43:26;;;;;;;22.57;4.20;;;8.80;99.90;;;;;;5033333;28;20029;-70
2022/02/18 01:45:52;;;;;;;24.40;4.17;;;8.80;99.90;;;;;;5015805;28;20048;-70
2022/02/18 01:48:18;;;;;;;21.77;3.83;;;8.70;99.90;;;;;;5015762;28;20032;-71
2022/02/18 01:50:44;;;;;;;22.30;4.20;;;8.70;99.90;;;;;;5015608;28;20029;-71
2022/02/18 01:53:12;;;;;;;20.13;4.20;;;8.80;99.90;;;;;;5032702;28;20037;-70
2022/02/18 01:55:38;;;;;;;37.93;4.53;;;8.80;99.90;;;;;;5015622;28;20037;-70
2022/02/18 01:58:06;;;;;;;24.43;3.97;;;8.90;99.90;;;;;;4999248;28;20481;-70
2022/02/18 02:00:34;;;;;;;18.93;3.97;;;8.90;99.90;;;;;;5014370;28;20288;-70
2022/02/18 02:03:02;;;;;;;26.07;4.53;;;8.80;99.90;;;;;;5032023;28;20615;-70
2022/02/18 02:05:28;;;;;;;22.17;4.40;;;8.80;99.90;;;;;;5032922;28;20540;-70
2022/02/18 02:07:56;;;;;;;20.43;4.37;;;8.80;99.90;;;;;;5022978;23;20310;-70
2022/02/18 02:10:22;;;;;;;23.07;5.30;;;8.80;99.90;;;;;;5013329;28;20034;-70
2022/02/18 02:12:51;;;;;;;20.87;5.00;;;8.80;99.90;;;;;;5013426;28;20026;-70
2022/02/18 02:15:31;;;;;;;24.83;5.07;;;8.80;99.90;;;;;;5011969;28;20034;-70
2022/02/18 02:18:03;;;;;;;24.67;5.53;;;8.80;99.90;;;;;;5013384;28;20390;-70
2022/02/18 02:20:29;;;;;;;17.70;4.33;;;8.80;99.90;;;;;;5012288;28;20037;-70
2022/02/18 02:22:55;;;;;;;18.70;3.73;;;8.80;99.90;;;;;;5011974;28;20030;-70
2022/02/18 02:25:21;;;;;;;20.90;3.73;;;8.70;99.90;;;;;;5011663;28;20037;-70
2022/02/18 02:27:49;;;;;;;18.00;3.50;;;8.70;99.90;;;;;;5012097;28;20490;-70
2022/02/18 02:30:15;;;;;;;21.40;3.70;;;8.70;99.90;;;;;;5011942;28;20096;-70
2022/02/18 02:32:42;;;;;;;20.13;3.20;;;8.70;99.90;;;;;;5009168;28;20049;-70
2022/02/18 02:35:08;;;;;;;17.60;3.00;;;8.70;99.90;;;;;;5011495;28;20037;-70
2022/02/18 02:37:36;;;;;;;18.57;3.10;;;8.70;99.90;;;;;;5011438;28;20033;-70
2022/02/18 02:40:18;;;;;;;14.17;2.90;;;8.70;99.90;;;;;;5011380;28;20068;-70
2022/02/18 02:42:45;;;;;;;19.87;4.10;;;8.60;99.90;;;;;;5011397;28;20026;-70
2022/02/18 02:45:13;;;;;;;20.30;3.70;;;8.60;99.90;;;;;;5011191;28;20022;-70
2022/02/18 02:47:44;;;;;;;21.58;3.67;;;8.60;99.90;;;;;;5011365;28;20088;-70
2022/02/18 02:50:27;;;;;;;19.20;3.40;;;8.60;99.90;;;;;;5011972;28;20473;-70
2022/02/18 02:52:59;;;;;;;18.90;3.60;;;8.60;99.90;;;;;;5011315;28;20026;-70
2022/02/18 02:55:25;;;;;;;16.37;3.27;;;8.60;99.90;;;;;;5011209;28;20037;-70
2022/02/18 02:57:52;;;;;;;17.17;3.60;;;8.70;99.90;;;;;;5011024;28;20030;-70
2022/02/18 03:00:18;;;;;;;15.47;3.07;;;8.60;99.90;;;;;;5011145;28;20386;-69
2022/02/18 03:02:45;;;;;;;20.27;3.77;;;8.60;99.90;;;;;;5011060;28;20511;-70
2022/02/18 03:05:13;;;;;;;18.63;3.00;;;8.60;99.90;;;;;;5009860;28;20026;-70
2022/02/18 03:07:40;;;;;;;23.10;3.37;;;8.60;99.90;;;;;;5010759;28;20037;-70
2022/02/18 03:10:15;;;;;;;17.47;3.70;;;8.60;99.90;;;;;;5010721;28;20034;-70
2022/02/18 03:12:42;;;;;;;16.63;3.00;;;8.60;99.90;;;;;;5010761;28;20034;-70
2022/02/18 03:15:13;;;;;;;17.17;2.93;;;8.60;99.90;;;;;;5010761;28;20026;-70
2022/02/18 03:17:41;;;;;;;20.90;3.57;;;8.60;99.90;;;;;;5010768;28;20058;-70
2022/02/18 03:20:39;;;;;;;25.33;3.55;;;8.50;99.90;;;;;;5007513;28;20442;-70
2022/02/18 03:23:05;;;;;;;15.30;2.60;;;8.50;99.90;;;;;;5010512;28;20065;-70
2022/02/18 03:25:31;;;;;;;21.53;3.70;;;8.50;99.90;;;;;;5010413;28;20030;-70
2022/02/18 03:27:58;;;;;;;19.20;3.50;;;8.50;99.90;;;;;;5010644;28;20490;-70
2022/02/18 03:30:28;;;;;;;19.73;3.40;;;8.50;99.90;;;;;;5010548;28;20061;-70
2022/02/18 03:32:54;;;;;;;22.40;4.43;;;8.50;99.90;;;;;;5010572;28;20029;-70
2022/02/18 03:35:24;;;;;;;18.07;3.53;;;8.50;99.90;;;;;;5010183;28;20056;-70
2022/02/18 03:37:51;;;;;;;21.27;3.87;;;8.50;99.90;;;;;;5010490;28;20029;-70
2022/02/18 03:40:33;;;;;;;22.43;3.67;;;8.50;99.90;;;;;;5011646;28;20701;-70
2022/02/18 03:42:59;;;;;;;20.80;3.90;;;8.50;99.90;;;;;;5010273;28;20072;-70
2022/02/18 03:45:31;;;;;;;27.93;4.53;;;8.50;99.90;;;;;;4994591;28;20030;-71
2022/02/18 03:47:57;;;;;;;19.80;3.73;;;8.60;99.90;;;;;;5010139;28;20030;-70
2022/02/18 03:50:24;;;;;;;25.70;3.60;;;8.60;99.90;;;;;;5010220;28;20037;-71
2022/02/18 03:52:51;;;;;;;23.53;4.27;;;8.60;99.90;;;;;;5009486;28;20080;-69
2022/02/18 03:55:19;;;;;;;25.27;4.57;;;8.60;99.90;;;;;;5010031;28;20140;-71
2022/02/18 03:57:48;;;;;;;25.67;4.23;;;8.60;99.90;;;;;;5010064;28;20053;-69
2022/02/18 04:00:16;;;;;;;28.17;4.13;;;8.60;99.90;;;;;;5009977;28;20030;-71
2022/02/18 04:02:45;;;;;;;;;;;8.60;99.90;;;;;;5012025;28;20045;-70
2022/02/18 04:05:29;;;;;;;23.13;3.80;;;8.60;99.90;;;;;;5009876;28;19917;-70
2022/02/18 04:08:06;;;;;;;24.17;3.77;;;8.60;99.90;;;;;;5009743;28;20037;-70
2022/02/18 04:10:32;;;;;;;21.40;3.93;;;8.60;99.90;;;;;;5009933;28;20037;-70
2022/02/18 04:13:03;;;;;;;26.30;3.87;;;8.60;99.90;;;;;;5009966;28;20037;-71
2022/02/18 04:15:29;;;;;;;26.93;4.03;;;8.60;99.90;;;;;;5009787;28;20091;-69
2022/02/18 04:17:56;;;;;;;23.67;4.17;;;8.60;99.90;;;;;;5009541;28;20025;-71
2022/02/18 04:20:31;;;;;;;22.87;3.90;;;8.60;99.90;;;;;;5009771;28;20029;-71
2022/02/18 04:22:59;;;;;;;23.20;3.47;;;8.70;99.90;;;;;;5009755;28;20026;-71
2022/02/18 04:25:33;;;;;;;21.47;4.27;;;8.70;99.90;;;;;;5009602;28;20501;-70
2022/02/18 04:28:02;;;;;;;20.37;3.40;;;8.70;99.90;;;;;;5011221;28;20034;-70
2022/02/18 04:30:28;;;;;;;;;;;8.70;99.90;;;;;;5011500;28;20116;-71
2022/02/18 04:32:54;;;;;;;24.90;5.43;;;8.70;99.90;;;;;;5011151;28;19984;-70
2022/02/18 04:35:21;;;;;;;23.87;3.73;;;8.70;99.90;;;;;;5009583;28;20383;-70
2022/02/18 04:37:47;;;;;;;22.53;5.23;;;8.70;99.90;;;;;;5009737;28;20457;-71
2022/02/18 04:40:14;;;;;;;22.73;4.27;;;8.70;99.90;;;;;;5010726;28;20473;-70
2022/02/18 04:42:41;;;;;;;26.67;3.93;;;8.70;99.90;;;;;;5009735;28;20030;-69
2022/02/18 04:45:08;;;;;;;20.33;3.33;;;8.70;99.90;;;;;;5010809;28;20114;-70
2022/02/18 04:47:35;;;;;;;23.93;3.63;;;8.70;99.90;;;;;;5009659;28;20030;-70
2022/02/18 04:50:04;;;;;;;27.17;4.13;;;8.70;99.90;;;;;;5010803;28;20033;-71
2022/02/18 04:52:30;;;;;;;18.50;3.80;;;8.70;99.90;;;;;;5010814;28;20026;-70
2022/02/18 04:54:56;;;;;;;21.80;4.43;;;8.70;99.90;;;;;;5009458;28;20076;-71
2022/02/18 04:57:22;;;;;;;19.77;3.80;;;8.70;99.90;;;;;;5010797;28;20518;-70
2022/02/18 04:59:48;;;;;;;24.63;4.30;;;8.70;99.90;;;;;;5010669;28;20589;-71
2022/02/18 05:02:16;;;;;;;19.03;3.70;;;8.70;99.90;;;;;;5010858;28;20038;-71
2022/02/18 05:04:43;;;;;;;14.57;2.90;;;8.70;99.90;;;;;;5011278;28;20561;-71
2022/02/18 05:07:09;;;;;;;25.27;4.10;;;8.70;99.90;;;;;;5009911;28;20607;-71
2022/02/18 05:09:35;;;;;;;21.10;3.63;;;8.60;99.90;;;;;;5011284;28;20040;-71
2022/02/18 05:12:01;;;;;;;21.07;3.80;;;8.70;99.90;;;;;;5010917;28;20422;-71
2022/02/18 05:14:27;;;;;;;23.27;4.00;;;8.70;99.90;;;;;;5010554;28;20034;-71
2022/02/18 05:16:53;;;;;;;24.33;4.40;;;8.70;99.90;;;;;;5010478;28;20657;-71
2022/02/18 05:19:19;;;;;;;20.70;3.53;;;8.70;99.90;;;;;;5010699;28;20526;-71
2022/02/18 05:21:44;;;;;;;22.13;3.27;;;8.60;99.90;;;;;;5010480;28;20113;-70
2022/02/18 05:24:10;;;;;;;25.97;3.93;;;8.70;99.90;;;;;;5009096;28;20133;-71
2022/02/18 05:26:37;;;;;;;18.00;3.47;;;8.70;99.90;;;;;;5010556;28;20030;-71
2022/02/18 05:29:04;;;;;;;21.60;3.77;;;8.70;99.90;;;;;;5011731;28;20390;-70
2022/02/18 05:31:30;;;;;;;23.00;4.13;;;8.70;99.90;;;;;;5013994;28;20109;-72
2022/02/18 05:33:56;;;;;;;14.13;2.70;;;8.70;99.90;;;;;;5013772;28;20487;-71
2022/02/18 05:36:23;;;;;;;18.03;3.10;;;8.70;99.90;;;;;;5013893;28;20079;-71
2022/02/18 05:38:49;;;;;;;19.67;3.03;;;8.70;99.90;;;;;;5012592;28;20497;-71
2022/02/18 05:41:16;;;;;;;27.10;3.80;;;8.70;99.90;;;;;;5013876;28;20108;-71
2022/02/18 05:43:43;;;;;;;20.50;3.10;;;8.70;99.90;;;;;;5013583;28;20041;-72
2022/02/18 05:46:09;;;;;;;15.83;3.03;;;8.70;99.90;;;;;;5013724;28;20026;-70
2022/02/18 05:48:35;;;;;;;20.27;3.00;;;8.70;99.90;;;;;;5013525;28;20052;-71
2022/02/18 05:51:03;;;;;;;16.17;3.40;;;8.70;99.90;;;;;;5013656;28;20038;-71
2022/02/18 05:53:31;;;;;;;17.88;3.38;;;8.70;99.90;;;;;;5013603;28;20105;-71
2022/02/18 05:55:58;;;;;;;15.80;3.40;;;8.70;99.90;;;;;;5013568;28;20022;-71
2022/02/18 05:58:24;;;;;;;21.03;3.30;;;8.70;99.90;;;;;;5013604;28;20504;-71
2022/02/18 06:00:50;;;;;;;24.00;4.07;;;8.70;99.90;;;;;;5013422;28;20038;-71
2022/02/18 06:03:16;;;;;;;20.57;3.53;;;8.70;99.90;;;;;;5013380;28;20025;-70
2022/02/18 06:05:42;;;;;;;19.67;3.07;;;8.70;99.90;;;;;;5012316;28;20453;-72
2022/02/18 06:08:10;;;;;;;15.87;2.80;;;8.70;99.90;;;;;;5012905;28;20442;-71
2022/02/18 06:10:36;;;;;;;17.53;3.13;;;8.80;99.90;;;;;;5013561;28;20133;-71
2022/02/18 06:13:03;;;;;;;19.77;3.73;;;8.80;99.90;;;;;;5013151;28;20084;-71
2022/02/18 06:15:29;;;;;;;21.20;3.27;;;8.80;99.90;;;;;;5011971;28;20064;-71
2022/02/18 06:17:57;;;;;;;16.73;3.00;;;8.80;99.90;;;;;;5013214;28;20034;-72
2022/02/18 06:20:23;;;;;;;17.23;3.30;;;8.70;99.90;;;;;;5013362;28;20367;-71
2022/02/18 06:22:49;;;;;;;22.07;3.20;;;8.70;99.90;;;;;;5013277;28;20037;-71
2022/02/18 06:25:16;;;;;;;16.10;3.37;;;8.70;99.90;;;;;;5013044;28;20497;-70
2022/02/18 06:27:42;;;;;;;18.23;2.80;;;8.70;99.90;;;;;;5013086;28;20103;-70
2022/02/18 06:30:08;;;;;;;18.07;3.37;;;8.70;99.90;;;;;;5013188;28;20789;-69
2022/02/18 06:32:35;;;;;;;18.50;3.13;;;8.70;99.90;;;;;;5017064;28;20033;-70
2022/02/18 06:35:01;;;;;;;19.13;2.77;;;8.70;99.90;;;;;;5008966;28;20053;-70
2022/02/18 06:37:27;;;;;;;24.93;3.97;;;8.70;99.90;;;;;;5012045;28;20046;-70
2022/02/18 06:39:53;;;;;;;22.70;3.60;;;8.70;99.90;;;;;;5010944;28;20056;-72
2022/02/18 06:42:19;;;;;;;17.50;3.80;;;8.70;99.90;;;;;;5011363;28;20386;-71
2022/02/18 06:44:45;;;;;;;19.13;3.00;;;8.70;99.90;;;;;;5011146;28;20419;-72
2022/02/18 06:47:12;;;;;;;16.87;3.03;;;8.70;99.90;;;;;;5010789;28;20030;-66
2022/02/18 06:49:38;;;;;;;23.33;3.77;;;8.70;99.90;;;;;;5011271;28;20033;-67
2022/02/18 06:52:04;;;;;;;17.10;2.90;;;8.70;99.90;;;;;;5011170;28;20474;-70
2022/02/18 06:54:31;;;;;;;20.47;4.10;;;8.70;99.90;;;;;;5010956;28;20549;-71
2022/02/18 06:57:01;;;;;;;14.93;3.40;;;8.70;99.90;;;;;;5009996;28;20037;-69
2022/02/18 06:59:28;;;;;;;15.97;3.30;;;8.60;99.90;;;;;;5011075;28;20483;-70
2022/02/18 07:01:54;;;;;;;28.30;4.17;;;8.70;99.90;;;;;;5009914;28;20113;-73
2022/02/18 07:04:22;;;;;;;15.07;3.03;;;8.60;99.90;;;;;;5010380;28;20037;-71
2022/02/18 07:06:48;;;;;;;16.20;3.10;;;8.70;99.90;;;;;;5011255;28;20033;-69
2022/02/18 07:09:15;;;;;;;23.10;3.83;;;8.60;99.90;;;;;;5010904;28;20038;-70
2022/02/18 07:11:41;;;;;;;14.37;3.20;;;8.60;99.90;;;;;;5011199;28;20034;-71
2022/02/18 07:14:09;;;;;;;22.17;3.00;;;8.50;99.90;;;;;;5010573;28;20040;-70
2022/02/18 07:16:42;;;;;;;16.03;3.20;;;8.50;99.90;;;;;;5010937;28;20061;-70
2022/02/18 07:19:13;;;;;;;16.43;3.20;;;8.50;99.90;;;;;;5008874;28;20040;-70
2022/02/18 07:21:39;;;;;;;20.10;3.63;;;8.50;99.90;;;;;;5011306;28;20113;-70
2022/02/18 07:24:10;;;;;;;20.33;3.33;;;8.40;99.90;;;;;;5010320;28;20510;-72
2022/02/18 07:26:37;;;;;;;25.43;4.40;;;8.50;99.90;;;;;;5009573;28;20022;-70
2022/02/18 07:29:03;;;;;;;18.50;3.03;;;8.40;99.90;;;;;;5010410;28;20474;-69
2022/02/18 07:31:29;;;;;;;21.60;3.33;;;8.50;99.90;;;;;;5010500;28;20092;-70
2022/02/18 07:33:56;;;;;;;19.17;3.40;;;8.40;99.90;;;;;;5009561;28;20034;-69
2022/02/18 07:36:22;;;;;;;18.97;3.20;;;8.40;99.90;;;;;;5010446;28;20438;-70
2022/02/18 07:38:48;;;;;;;25.03;4.47;;;8.50;99.90;;;;;;5010392;28;20143;-70
2022/02/18 07:41:14;;;;;;;19.67;3.60;;;8.50;99.90;;;;;;5010551;28;20026;-69
2022/02/18 07:43:40;;;;;;;23.87;4.10;;;8.50;99.90;;;;;;5010074;28;20036;-69
2022/02/18 07:46:06;;;;;;;21.93;3.33;;;8.40;99.90;;;;;;5010305;28;20022;-69
2022/02/18 07:48:32;;;;;;;18.73;3.27;;;8.50;99.90;;;;;;5008333;28;20125;-70
2022/02/18 07:50:58;;;;;;;20.73;4.47;;;8.50;99.90;;;;;;5008461;28;20366;-69
2022/02/18 07:53:24;;;;;;;20.53;3.20;;;8.60;99.90;;;;;;5009627;28;20096;-69
2022/02/18 07:55:50;;;;;;;22.70;4.50;;;8.60;99.90;;;;;;5009462;28;20040;-70
2022/02/18 07:58:17;;;;;;;18.50;3.47;;;8.60;99.90;;;;;;5009415;28;20045;-69
2022/02/18 08:00:42;;;;;;;21.63;4.53;;;8.60;99.90;;;;;;5008339;28;20037;-69
2022/02/18 08:03:09;;;;;;;25.50;5.50;;;8.60;99.90;;;;;;5009666;28;20026;-69
2022/02/18 08:05:35;;;;;;;27.70;4.37;;;8.70;99.90;;;;;;5009992;28;20259;-70
2022/02/18 08:08:01;;;;;;;22.07;3.20;;;8.70;99.90;;;;;;5030738;23;20087;-70
2022/02/18 08:10:28;;;;;;;21.00;4.40;;;8.70;99.90;;;;;;5007754;28;20132;-71
2022/02/18 08:12:54;;;;;;;26.73;4.27;;;8.60;99.90;;;;;;5010123;28;20034;-69
2022/02/18 08:15:22;;;;;;;23.07;3.47;;;8.80;99.90;;;;;;5010006;28;20030;-68
2022/02/18 08:17:47;;;;;;;17.50;3.33;;;8.80;99.90;;;;;;5010102;28;20459;-69
2022/02/18 08:20:14;;;;;;;24.60;6.67;;;8.80;99.90;;;;;;5009663;28;20112;-68
2022/02/18 08:22:40;;;;;;;23.47;5.33;;;8.80;99.90;;;;;;5009773;28;20030;-68
2022/02/18 08:25:07;;;;;;;24.93;4.70;;;8.80;99.90;;;;;;5010023;28;20483;-65
2022/02/18 08:27:33;;;;;;;23.33;4.17;;;8.80;99.90;;;;;;5010004;28;20030;-67
2022/02/18 08:29:59;;;;;;;21.00;3.70;;;8.80;99.90;;;;;;5009782;28;20412;-68
2022/02/18 08:32:25;;;;;;;19.17;4.17;;;8.90;99.90;;;;;;5009840;28;20055;-66
2022/02/18 08:34:55;;;;;;;18.63;4.27;;;8.90;99.90;;;;;;5009192;28;20453;-69
2022/02/18 08:37:21;;;;;;;23.83;3.93;;;9.00;99.90;;;;;;5009792;28;20088;-69
2022/02/18 08:39:47;;;;;;;13.20;3.60;;;9.00;99.90;;;;;;5009611;28;20034;-67
2022/02/18 08:42:13;;;;;;;21.77;3.50;;;9.00;99.90;;;;;;5009950;28;20040;-67
2022/02/18 08:44:39;;;;;;;18.63;3.43;;;9.00;99.90;;;;;;5009539;28;20108;-68
2022/02/18 08:47:06;;;;;;;22.47;3.90;;;9.00;99.90;;;;;;5009823;28;20037;-68
2022/02/18 08:49:34;;;;;;;20.47;3.70;;;9.00;99.90;;;;;;5009186;28;20387;-68
2022/02/18 08:52:00;;;;;;;17.40;3.87;;;9.00;99.90;;;;;;5009697;28;20030;-68
2022/02/18 08:54:26;;;;;;;22.67;3.67;;;9.00;99.90;;;;;;5009509;28;20064;-68
2022/02/18 08:56:52;;;;;;;15.50;3.70;;;9.00;99.90;;;;;;5009926;28;20053;-67
2022/02/18 08:59:18;;;;;;;18.20;3.40;;;9.00;99.90;;;;;;5009439;28;20045;-68
2022/02/18 09:01:45;;;;;;;19.77;4.23;;;9.00;99.90;;;;;;5009940;28;20072;-67
2022/02/18 09:04:12;;;;;;;21.67;3.93;;;9.00;99.90;;;;;;4993363;28;20041;-68
2022/02/18 09:06:38;;;;;;;20.47;3.63;;;9.00;99.90;;;;;;5013711;28;20037;-68
2022/02/18 09:09:04;;;;;;;17.03;3.93;;;9.10;99.90;;;;;;5013058;28;20038;-68
2022/02/18 09:11:30;;;;;;;24.17;4.63;;;9.10;99.90;;;;;;5013401;28;20034;-68
2022/02/18 09:13:56;;;;;;;21.17;4.23;;;9.10;99.90;;;;;;5012868;28;20033;-68
2022/02/18 09:16:23;;;;;;;29.80;5.00;;;9.10;99.90;;;;;;4995612;28;20069;-68
2022/02/18 09:18:56;;;;;;;19.03;4.93;;;9.10;99.90;;;;;;5013012;28;20038;-69
2022/02/18 09:21:22;;;;;;;21.93;5.10;;;9.10;99.90;;;;;;5013642;28;20079;-67
2022/02/18 09:23:47;;;;;;;18.67;3.77;;;9.10;99.90;;;;;;5013981;28;20117;-67
2022/02/18 09:26:13;;;;;;;22.27;5.17;;;9.10;99.90;;;;;;5014157;28;20625;-67
2022/02/18 09:28:39;;;;;;;21.47;4.30;;;9.10;99.90;;;;;;5013318;28;20064;-67
2022/02/18 09:31:05;;;;;;;24.30;5.07;;;9.20;99.90;;;;;;5012993;28;20414;-66
2022/02/18 09:33:31;;;;;;;22.40;3.70;;;9.20;99.90;;;;;;5012291;28;20030;-67
2022/02/18 09:35:57;;;;;;;22.63;4.27;;;9.20;99.90;;;;;;5012954;28;20112;-67
2022/02/18 09:38:23;;;;;;;20.23;4.43;;;9.30;99.90;;;;;;5012698;28;20589;-67
2022/02/18 09:40:49;;;;;;;18.13;3.63;;;9.30;99.90;;;;;;5012589;28;20033;-67
2022/02/18 09:43:19;;;;;;;17.60;3.57;;;9.30;99.90;;;;;;4994926;28;20034;-67
2022/02/18 09:45:46;;;;;;;12.43;2.97;;;9.30;99.90;;;;;;5012532;28;20353;-67
2022/02/18 09:48:14;;;;;;;13.23;3.88;;;9.30;99.90;;;;;;5012644;28;20041;-67
2022/02/18 09:50:41;;;;;;;14.07;3.10;;;9.40;99.90;;;;;;5012243;28;20474;-67
2022/02/18 09:53:07;;;;;;;16.30;3.47;;;9.50;99.90;;;;;;4995850;28;20045;-68
2022/02/18 09:55:39;;;;;;;19.07;7.00;;;9.50;99.90;;;;;;5013187;28;20458;-68
2022/02/18 09:58:06;;;;;;;18.30;6.03;;;9.60;99.90;;;;;;5012904;28;20193;-68
2022/02/18 10:00:33;;;;;;;13.83;4.67;;;9.70;99.90;;;;;;5013715;28;20044;-67
2022/02/18 10:02:59;;;;;;;13.43;4.17;;;9.70;99.90;;;;;;5012614;28;20393;-69
2022/02/18 10:05:25;;;;;;;21.77;3.57;;;9.80;99.90;;;;;;5011651;28;20105;-69
2022/02/18 10:08:15;;;;;;;13.00;4.83;;;9.80;99.90;;;;;;5012004;28;20121;-68
2022/02/18 10:10:56;;;;;;;10.65;2.53;;;9.90;99.90;;;;;;5012182;28;20081;-67
2022/02/18 10:13:28;;;;;;;15.27;3.50;;;9.90;99.90;;;;;;5011825;28;20030;-69
2022/02/18 10:15:56;;;;;;;13.00;2.90;;;9.90;99.90;;;;;;5011488;28;20030;-68
2022/02/18 10:18:22;;;;;;;12.53;3.30;;;10.10;99.90;;;;;;4993803;28;20032;-70
2022/02/18 10:20:49;;;;;;;13.43;2.97;;;10.20;99.90;;;;;;4994174;28;20041;-70
2022/02/18 10:23:18;;;;;;;10.80;2.30;;;10.40;99.90;;;;;;5011572;28;20449;-70
2022/02/18 10:25:45;;;;;;;11.03;2.00;;;10.40;99.90;;;;;;5011862;28;20050;-67
2022/02/18 10:28:14;;;;;;;7.50;2.37;;;10.60;99.90;;;;;;5011601;28;20501;-69
2022/02/18 10:30:42;;;;;;;8.32;2.13;;;10.50;99.90;;;;;;5011899;28;20030;-68
2022/02/18 10:33:12;;;;;;;7.53;2.00;;;10.50;99.90;;;;;;5011776;28;20034;-68
2022/02/18 10:35:40;;;;;;;10.47;2.07;;;10.50;99.90;;;;;;4993473;28;20507;-69
2022/02/18 10:38:07;;;;;;;13.30;2.30;;;10.40;99.90;;;;;;4994026;28;20481;-69
2022/02/18 10:40:42;;;;;;;13.90;2.40;;;10.40;99.90;;;;;;5011544;28;20041;-69
2022/02/18 10:43:10;;;;;;;8.80;2.53;;;10.30;99.90;;;;;;5011412;28;20140;-68
2022/02/18 10:45:49;;;;;;;8.73;2.38;;;10.30;99.90;;;;;;4993735;28;20188;-69
2022/02/18 10:48:14;;;;;;;8.55;2.28;;;10.30;99.90;;;;;;5011439;28;20034;-69
2022/02/18 10:50:42;;;;;;;9.33;2.30;;;10.30;99.90;;;;;;5010954;28;20022;-68
2022/02/18 10:53:33;;;;;;;6.73;2.07;;;10.30;99.90;;;;;;5011717;28;20029;-68
2022/02/18 10:56:03;;;;;;;7.80;1.90;;;10.30;99.90;;;;;;5010743;28;20133;-68
2022/02/18 10:58:34;;;;;;;7.10;2.10;;;10.30;99.90;;;;;;4993536;28;20386;-68
2022/02/18 11:01:24;;;;;;;7.47;2.07;;;10.30;99.90;;;;;;5011476;28;20022;-68
2022/02/18 11:03:52;;;;;;;6.93;2.10;;;10.40;99.90;;;;;;5010767;28;20022;-68
2022/02/18 11:06:23;;;;;;;7.63;1.90;;;10.30;99.90;;;;;;4993699;28;20066;-69
2022/02/18 11:09:07;;;;;;;8.80;2.30;;;10.40;99.90;;;;;;4993315;28;20117;-67
2022/02/18 11:11:36;;;;;;;4.47;1.20;;;10.40;99.90;;;;;;5011274;28;20022;-67
2022/02/18 11:14:07;;;;;;;4.18;1.05;;;10.50;99.90;;;;;;4993062;28;20046;-68
2022/02/18 11:16:40;;;;;;;3.47;1.00;;;10.50;99.90;;;;;;5011254;28;20022;-69
2022/02/18 11:19:06;;;;;;;1.53;0.63;;;10.60;99.90;;;;;;5010299;28;20026;-68
2022/02/18 11:21:32;;;;;;;2.83;1.17;;;10.80;99.90;;;;;;5011039;28;20037;-67
2022/02/18 11:24:02;;;;;;;4.03;1.10;;;10.90;99.90;;;;;;5010807;28;20554;-67
2022/02/18 11:26:31;;;;;;;3.35;1.40;;;11.00;99.90;;;;;;5009984;28;20479;-68
2022/02/18 11:29:02;;;;;;;1.57;0.60;;;11.10;99.90;;;;;;5010532;28;20045;-69
2022/02/18 11:31:50;;;;;;;2.10;0.60;;;11.20;99.90;;;;;;5011143;28;20068;-69
2022/02/18 11:34:43;;;;;;;1.53;0.47;;;11.30;99.90;;;;;;5010588;28;20061;-68
2022/02/18 11:37:47;;;;;;;1.87;0.60;;;11.30;99.90;;;;;;4977263;28;20371;-68
2022/02/18 11:40:40;;;;;;;1.20;0.50;;;11.50;99.90;;;;;;5010500;28;20111;-67
2022/02/18 11:43:27;;;;;;;1.13;0.40;;;11.60;99.90;;;;;;4993110;28;20034;-69
2022/02/18 11:45:56;;;;;;;2.60;0.67;;;11.60;99.90;;;;;;5011020;28;20077;-68
2022/02/18 11:48:35;;;;;;;1.10;0.30;;;11.60;99.90;;;;;;5010211;28;20030;-68
2022/02/18 11:51:09;;;;;;;1.35;0.30;;;11.70;99.90;;;;;;5010922;28;20040;-68
2022/02/18 11:53:49;;;;;;;0.87;0.40;;;11.80;99.90;;;;;;5010490;28;20040;-68
2022/02/18 11:56:27;;;;;;;0.43;0.30;;;11.80;99.90;;;;;;5010940;28;20105;-67
2022/02/18 11:59:03;;;;;;;1.50;0.37;;;11.80;99.90;;;;;;5010679;28;20033;-68
2022/02/18 12:02:04;;;;;;;1.55;0.38;;;11.90;99.90;;;;;;5010565;28;20026;-67
2022/02/18 12:04:33;;;;;;;1.27;0.37;;;11.90;99.90;;;;;;5009954;28;20033;-70
2022/02/18 12:07:20;;;;;;;1.00;0.50;;;12.00;99.90;;;;;;4992880;28;20077;-69
2022/02/18 12:09:53;;;;;;;1.37;0.40;;;12.00;99.90;;;;;;5010207;28;20038;-68
2022/02/18 12:12:22;;;;;;;1.10;0.50;;;12.10;99.90;;;;;;5010388;28;20505;-69
2022/02/18 12:14:54;;;;;;;1.73;0.43;;;12.10;99.90;;;;;;5010281;28;20366;-69
2022/02/18 12:17:21;;;;;;;2.10;0.30;;;12.10;99.90;;;;;;4992853;28;20109;-69
2022/02/18 12:19:47;;;;;;;0.63;0.40;;;12.20;99.90;;;;;;4991878;28;20029;-69
2022/02/18 12:22:13;;;;;;;0.83;0.50;;;12.20;99.90;;;;;;5010175;28;20037;-68
2022/02/18 12:24:47;;;;;;;1.47;0.60;;;12.20;99.90;;;;;;5017904;28;20029;-68
2022/02/18 12:27:19;;;;;;;8.20;0.83;;;12.20;99.90;;;;;;5029686;28;20403;-69
2022/02/18 12:29:49;;;;;;;1.17;0.50;;;12.20;99.90;;;;;;5011937;28;20030;-68
2022/02/18 12:32:15;;;;;;;3.57;0.80;;;12.20;99.90;;;;;;5029854;28;20033;-69
2022/02/18 12:34:43;;;;;;;1.80;0.57;;;12.30;99.90;;;;;;5029733;28;20037;-67
2022/02/18 12:37:15;;;;;;;1.13;0.37;;;12.50;99.90;;;;;;5030111;28;20033;-65
2022/02/18 12:39:45;;;;;;;2.33;0.50;;;12.60;99.90;;;;;;5033677;28;20021;-69
2022/02/18 12:42:19;;;;;;;3.03;0.63;;;12.70;99.90;;;;;;5034075;28;20028;-69
2022/02/18 12:44:46;;;;;;;2.13;0.87;;;12.70;99.90;;;;;;5033533;28;20036;-70
2022/02/18 12:47:17;;;;;;;4.47;1.07;;;12.70;99.90;;;;;;5033769;28;20049;-67
2022/02/18 12:49:43;;;;;;;5.07;0.70;;;12.70;99.90;;;;;;5033134;28;20030;-68
2022/02/18 12:52:11;;;;;;;3.30;0.53;;;12.80;99.90;;;;;;5033442;28;20036;-67
2022/02/18 12:54:55;;;;;;;2.67;0.60;;;12.70;99.90;;;;;;5033144;28;20076;-68